Time;durP1;ratioP1;P1;durP2;ratioP2;P2;SDS_P1;SDS_P2;PMS_P1;PMS_P2;Temp;Humidity;BMP_temperature;BMP_pressure;BME280_temperature;BME280_humidity;BME280_pressure;Samples;Min_cycle;Max_cycle;Signal;HPM_P1;HPM_P2
2022/02/12 00:00:30;;;;;;;19.55;5.65;;;;;;;0.32;100.00;103432.94;5097911;28;20491;-75
2022/02/12 00:02:56;;;;;;;15.65;5.38;;;;;;;0.26;100.00;103427.16;5095774;28;20048;-74
2022/02/12 00:05:25;;;;;;;11.10;4.38;;;;;;;0.22;100.00;103417.25;5096422;28;20043;-74
2022/02/12 00:07:55;;;;;;;19.65;6.03;;;;;;;0.35;100.00;103423.66;5086000;28;20425;-74
2022/02/12 00:10:21;;;;;;;12.30;5.10;;;;;;;0.24;100.00;103420.91;5086715;28;20031;-74
2022/02/12 00:12:47;;;;;;;15.15;4.72;;;;;;;0.25;100.00;103422.75;5087687;28;20024;-74
2022/02/12 00:15:12;;;;;;;20.23;4.47;;;;;;;0.30;100.00;103420.63;5093596;28;20031;-74
2022/02/12 00:17:38;;;;;;;20.13;5.43;;;;;;;0.25;100.00;103408.91;5082751;28;20023;-74
2022/02/12 00:20:05;;;;;;;15.10;6.93;;;;;;;0.30;100.00;103408.59;5095621;28;20028;-74
2022/02/12 00:22:31;;;;;;;21.23;4.30;;;;;;;0.31;100.00;103407.84;5078568;28;20529;-74
2022/02/12 00:24:56;;;;;;;18.33;4.43;;;;;;;0.30;100.00;103400.81;5100304;28;20035;-74
2022/02/12 00:27:21;;;;;;;11.55;5.15;;;;;;;0.31;100.00;103404.31;5102860;28;20034;-74
2022/02/12 00:29:47;;;;;;;19.33;4.10;;;;;;;0.32;100.00;103398.38;5095759;28;20042;-74
2022/02/12 00:32:12;;;;;;;21.73;5.55;;;;;;;0.29;100.00;103393.81;5098355;28;20027;-73
2022/02/12 00:34:38;;;;;;;18.85;5.13;;;;;;;0.29;100.00;103396.38;5082410;28;20412;-74
2022/02/12 00:37:03;;;;;;;17.08;5.70;;;;;;;0.40;100.00;103397.47;5097581;28;20032;-74
2022/02/12 00:39:29;;;;;;;13.52;4.93;;;;;;;0.33;100.00;103380.38;5083332;28;20073;-74
2022/02/12 00:41:54;;;;;;;14.05;5.50;;;;;;;0.30;100.00;103381.78;5106516;28;20030;-74
2022/02/12 00:44:20;;;;;;;21.02;5.43;;;;;;;0.24;100.00;103382.06;5077240;28;20089;-74
2022/02/12 00:46:46;;;;;;;19.98;4.82;;;;;;;0.21;100.00;103376.59;5097536;28;20016;-73
2022/02/12 00:49:11;;;;;;;21.05;5.95;;;;;;;0.20;100.00;103371.25;5095513;28;20123;-73
2022/02/12 00:51:37;;;;;;;14.93;5.88;;;;;;;0.17;100.00;103371.88;5095169;28;20030;-74
2022/02/12 00:54:02;;;;;;;17.42;5.63;;;;;;;0.17;100.00;103371.88;5081911;28;20058;-74
2022/02/12 00:56:32;;;;;;;10.60;4.82;;;;;;;0.16;100.00;103367.44;5098912;28;20528;-74
2022/02/12 00:58:57;;;;;;;15.55;5.60;;;;;;;0.28;100.00;103362.56;5087553;28;20031;-74
2022/02/12 01:01:23;;;;;;;15.35;5.10;;;;;;;0.22;100.00;103373.25;5074285;28;20048;-74
2022/02/12 01:03:49;;;;;;;23.75;6.25;;;;;;;0.16;100.00;103362.25;5079967;28;20027;-73
2022/02/12 01:06:14;;;;;;;13.50;5.13;;;;;;;0.16;100.00;103365.78;5086086;28;20035;-74
2022/02/12 01:08:39;;;;;;;19.67;5.30;;;;;;;0.17;100.00;103365.00;5098775;28;20028;-73
2022/02/12 01:11:05;;;;;;;16.38;5.53;;;;;;;0.18;100.00;103355.56;5102106;28;20016;-74
2022/02/12 01:13:31;;;;;;;15.27;4.38;;;;;;;0.17;100.00;103354.63;5079482;28;20023;-76
2022/02/12 01:15:56;;;;;;;10.25;4.50;;;;;;;0.11;100.00;103342.75;5100901;28;20055;-73
2022/02/12 01:18:22;;;;;;;13.60;3.97;;;;;;;0.16;100.00;103350.25;5080833;28;20395;-73
2022/02/12 01:20:47;;;;;;;16.77;4.55;;;;;;;0.18;100.00;103347.81;5105188;28;20114;-73
2022/02/12 01:23:12;;;;;;;20.48;3.90;;;;;;;0.17;100.00;103341.69;5081221;28;20047;-73
2022/02/12 01:25:38;;;;;;;15.02;4.18;;;;;;;0.21;100.00;103345.50;5099788;28;20059;-74
2022/02/12 01:28:03;;;;;;;12.07;3.95;;;;;;;0.21;100.00;103342.94;5105789;28;20076;-74
2022/02/12 01:30:29;;;;;;;16.70;3.95;;;;;;;0.27;100.00;103345.19;5108563;28;20095;-74
2022/02/12 01:32:54;;;;;;;10.95;3.88;;;;;;;0.32;100.00;103337.13;5095760;28;20118;-73
2022/02/12 01:35:23;;;;;;;14.68;3.85;;;;;;;0.37;100.00;103342.78;5106057;28;20052;-73
2022/02/12 01:37:49;;;;;;;14.35;4.57;;;;;;;0.39;100.00;103345.50;5094130;28;20043;-73
2022/02/12 01:40:14;;;;;;;18.85;4.55;;;;;;;0.42;100.00;103350.97;5105402;28;20129;-74
2022/02/12 01:42:40;;;;;;;16.55;3.78;;;;;;;0.43;100.00;103352.81;5099791;28;20027;-74
2022/02/12 01:45:05;;;;;;;20.45;4.82;;;;;;;0.44;100.00;103344.28;5100492;28;20062;-74
2022/02/12 01:47:31;;;;;;;15.88;3.92;;;;;;;0.43;100.00;103347.63;5081402;28;20039;-74
2022/02/12 01:49:56;;;;;;;15.18;5.70;;;;;;;0.47;100.00;103337.72;5104745;28;20416;-74
2022/02/12 01:52:23;;;;;;;16.40;3.53;;;;;;;0.51;100.00;103338.94;5101465;28;20399;-75
2022/02/12 01:54:49;;;;;;;16.02;4.03;;;;;;;0.52;100.00;103334.66;5093956;28;20055;-73
2022/02/12 01:57:15;;;;;;;16.90;3.58;;;;;;;0.51;100.00;103336.34;5098791;28;20028;-75
2022/02/12 01:59:40;;;;;;;23.52;3.78;;;;;;;0.54;100.00;103325.38;5100303;28;20379;-73
2022/02/12 02:02:07;;;;;;;21.35;3.95;;;;;;;0.52;100.00;103329.47;5096769;28;20046;-74
2022/02/12 02:04:33;;;;;;;21.63;4.70;;;;;;;0.55;100.00;103325.50;5083047;28;20035;-74
2022/02/12 02:06:58;;;;;;;14.68;3.95;;;;;;;0.58;100.00;103320.63;5084349;28;20051;-74
2022/02/12 02:09:24;;;;;;;18.15;4.25;;;;;;;0.59;100.00;103309.50;5106537;28;20494;-73
2022/02/12 02:11:49;;;;;;;12.18;4.47;;;;;;;0.60;100.00;103306.16;5105885;28;20031;-73
2022/02/12 02:14:16;;;;;;;12.70;4.28;;;;;;;0.63;100.00;103305.53;5079686;28;20034;-75
2022/02/12 02:16:42;;;;;;;16.25;3.92;;;;;;;0.63;100.00;103301.25;5093257;28;20036;-75
2022/02/12 02:19:09;;;;;;;19.33;3.92;;;;;;;0.62;100.00;103302.00;5101540;28;20038;-74
2022/02/12 02:21:36;;;;;;;24.40;4.70;;;;;;;0.63;100.00;103293.50;5096388;28;20032;-74
2022/02/12 02:24:03;;;;;;;20.58;5.22;;;;;;;0.65;100.00;103299.75;5108410;28;20023;-74
2022/02/12 02:26:28;;;;;;;22.63;5.05;;;;;;;0.63;100.00;103290.91;5090602;28;20038;-74
2022/02/12 02:28:53;;;;;;;11.45;3.75;;;;;;;0.67;100.00;103298.19;5096038;28;20380;-74
2022/02/12 02:31:19;;;;;;;18.25;4.38;;;;;;;0.69;100.00;103287.06;5086503;28;20032;-73
2022/02/12 02:33:44;;;;;;;19.02;4.82;;;;;;;0.72;100.00;103283.13;5078786;28;20035;-74
2022/02/12 02:36:10;;;;;;;22.38;4.82;;;;;;;0.72;100.00;103271.81;5081442;28;20544;-74
2022/02/12 02:38:36;;;;;;;15.18;4.43;;;;;;;0.73;100.00;103268.47;5074786;28;20055;-73
2022/02/12 02:41:01;;;;;;;18.42;4.35;;;;;;;0.75;100.00;103277.31;5082589;28;20048;-73
2022/02/12 02:43:27;;;;;;;20.88;4.55;;;;;;;0.76;100.00;103263.56;5099537;28;20028;-74
2022/02/12 02:45:52;;;;;;;13.35;4.97;;;;;;;0.72;100.00;103259.78;5075604;28;20363;-74
2022/02/12 02:48:18;;;;;;;22.63;5.38;;;;;;;0.70;100.00;103250.94;5108273;28;20032;-73
2022/02/12 02:56:13;;;;;;;27.80;5.55;;;;;;;0.56;100.00;103262.59;5099791;28;20042;-73
2022/02/12 02:58:40;;;;;;;17.65;5.10;;;;;;;0.56;100.00;103267.75;5079643;28;20050;-73
2022/02/12 03:01:10;;;;;;;15.10;5.00;;;;;;;0.57;100.00;103267.00;5105390;28;20475;-75
2022/02/12 03:03:37;;;;;;;18.08;4.95;;;;;;;0.56;100.00;103254.81;5103420;28;20024;-74
2022/02/12 03:06:02;;;;;;;12.65;4.80;;;;;;;0.59;100.00;103254.19;5080870;28;20122;-74
2022/02/12 03:08:28;;;;;;;21.33;4.50;;;;;;;0.59;100.00;103247.31;5103721;28;20106;-74
2022/02/12 03:10:55;;;;;;;19.40;5.20;;;;;;;0.62;100.00;103247.59;5105679;28;20114;-74
2022/02/12 03:13:20;;;;;;;22.65;5.00;;;;;;;0.64;100.00;103243.50;5078466;28;20085;-74
2022/02/12 03:15:46;;;;;;;20.08;4.30;;;;;;;0.68;100.00;103231.75;5103008;28;20024;-74
2022/02/12 03:18:11;;;;;;;14.98;4.40;;;;;;;0.68;100.00;103226.56;5098023;28;20099;-74
2022/02/12 03:20:37;;;;;;;13.45;4.43;;;;;;;0.70;100.00;103224.13;5086010;28;20487;-74
2022/02/12 03:23:03;;;;;;;12.43;4.50;;;;;;;0.69;100.00;103217.13;5088106;28;20031;-75
2022/02/12 03:25:28;;;;;;;18.13;4.07;;;;;;;0.71;100.00;103216.50;5099215;28;20035;-74
2022/02/12 03:27:58;;;;;;;16.25;4.90;;;;;;;0.72;100.00;103212.22;5100458;28;20032;-74
2022/02/12 03:30:28;;;;;;;23.58;5.88;;;;;;;0.72;100.00;103207.97;5074328;28;20029;-74
2022/02/12 03:32:54;;;;;;;16.42;4.38;;;;;;;0.72;100.00;103200.19;5092135;28;20035;-74
2022/02/12 03:35:22;;;;;;;15.85;4.13;;;;;;;0.71;100.00;103197.47;5105355;28;20043;-74
2022/02/12 03:37:49;;;;;;;25.42;4.35;;;;;;;0.71;100.00;103195.75;5086094;28;20020;-73
2022/02/12 03:40:15;;;;;;;18.45;4.38;;;;;;;0.69;100.00;103196.38;5078848;28;20115;-74
2022/02/12 03:42:40;;;;;;;22.42;4.20;;;;;;;0.71;100.00;103189.69;5097826;28;20097;-74
2022/02/12 03:45:06;;;;;;;14.77;3.90;;;;;;;0.73;100.00;103188.13;5101520;28;20546;-74
2022/02/12 03:47:32;;;;;;;24.40;4.68;;;;;;;0.78;100.00;103192.97;5080144;28;20036;-74
2022/02/12 03:49:57;;;;;;;16.10;3.50;;;;;;;0.84;100.00;103187.44;5105697;28;20493;-74
2022/02/12 03:52:22;;;;;;;15.52;3.58;;;;;;;0.86;100.00;103185.03;5100863;28;20032;-74
2022/02/12 03:54:48;;;;;;;22.45;4.15;;;;;;;0.87;100.00;103181.66;5089963;28;20040;-74
2022/02/12 03:57:13;;;;;;;11.82;3.47;;;;;;;0.87;100.00;103176.47;5062307;28;20417;-73
2022/02/12 03:59:38;;;;;;;16.40;4.28;;;;;;;0.88;100.00;103176.59;5080205;28;20036;-73
2022/02/12 04:02:04;;;;;;;19.23;4.78;;;;;;;0.89;100.00;103173.25;5075470;28;20020;-73
2022/02/12 04:04:29;;;;;;;19.55;3.70;;;;;;;0.89;100.00;103169.75;5084588;28;20043;-73
2022/02/12 04:06:55;;;;;;;19.80;3.92;;;;;;;0.87;100.00;103155.72;5070763;28;20118;-73
2022/02/12 04:09:20;;;;;;;14.77;4.10;;;;;;;0.87;100.00;103160.91;5073951;28;20036;-75
2022/02/12 04:11:45;;;;;;;12.80;3.45;;;;;;;0.87;100.00;103161.84;5089766;28;20024;-73
2022/02/12 04:14:11;;;;;;;17.25;3.90;;;;;;;0.85;100.00;103163.38;5079962;28;20384;-74
2022/02/12 04:16:36;;;;;;;14.55;3.95;;;;;;;0.83;100.00;103158.03;5086552;28;20067;-74
2022/02/12 04:19:01;;;;;;;10.02;4.07;;;;;;;0.85;100.00;103160.78;5077072;28;20029;-74
2022/02/12 04:21:27;;;;;;;15.98;4.70;;;;;;;0.83;100.00;103160.63;5078574;28;20052;-74
2022/02/12 04:23:52;;;;;;;14.43;3.45;;;;;;;0.81;100.00;103154.41;5076585;28;20451;-73
2022/02/12 04:26:18;;;;;;;24.75;3.85;;;;;;;0.78;100.00;103156.69;5077893;28;20024;-73
2022/02/12 04:28:44;;;;;;;19.13;3.33;;;;;;;0.76;100.00;103150.47;5075996;28;20029;-73
2022/02/12 04:31:09;;;;;;;15.35;4.18;;;;;;;0.73;100.00;103147.56;5083901;28;20028;-73
2022/02/12 04:33:34;;;;;;;20.70;4.10;;;;;;;0.73;100.00;103144.97;5078183;28;20539;-73
2022/02/12 04:36:00;;;;;;;17.88;3.70;;;;;;;0.70;100.00;103141.22;5086096;28;20100;-73
2022/02/12 04:38:25;;;;;;;15.57;3.92;;;;;;;0.69;100.00;103144.56;5084828;28;20028;-74
2022/02/12 04:40:50;;;;;;;16.63;4.45;;;;;;;0.67;100.00;103126.28;5080234;28;20392;-74
2022/02/12 04:43:16;;;;;;;17.80;4.25;;;;;;;0.67;100.00;103126.28;5077166;28;20169;-74
2022/02/12 04:45:41;;;;;;;16.90;4.70;;;;;;;0.66;100.00;103108.91;5078486;28;21041;-74
2022/02/12 04:48:07;;;;;;;15.45;4.72;;;;;;;0.66;100.00;103107.25;5063234;28;20036;-74
2022/02/12 04:50:32;;;;;;;11.20;3.65;;;;;;;0.63;100.00;103114.72;5079664;28;20028;-74
2022/02/12 04:52:58;;;;;;;23.85;4.53;;;;;;;0.62;100.00;103110.28;5088603;28;20031;-74
2022/02/12 04:55:24;;;;;;;12.95;3.88;;;;;;;0.62;100.00;103092.16;5058170;28;20048;-74
2022/02/12 04:57:50;;;;;;;14.23;4.25;;;;;;;0.59;100.00;103107.41;5079083;28;20016;-74
2022/02/12 05:00:16;;;;;;;16.27;4.97;;;;;;;0.57;100.00;103098.59;5065271;28;20040;-74
2022/02/12 05:02:42;;;;;;;20.80;5.05;;;;;;;0.55;100.00;103102.72;5069200;28;20029;-73
2022/02/12 05:05:09;;;;;;;14.05;4.63;;;;;;;0.52;100.00;103097.25;5056412;28;20024;-74
2022/02/12 05:07:35;;;;;;;16.15;4.70;;;;;;;0.52;100.00;103099.84;5066819;28;20187;-74
2022/02/12 05:10:01;;;;;;;16.50;4.88;;;;;;;0.51;100.00;103098.03;5073977;28;20025;-74
2022/02/12 05:12:26;;;;;;;13.70;4.45;;;;;;;0.44;100.00;103095.63;5060314;28;20031;-74
2022/02/12 05:14:52;;;;;;;23.95;5.00;;;;;;;0.47;100.00;103101.09;5074277;28;20032;-74
2022/02/12 05:17:18;;;;;;;20.73;5.40;;;;;;;0.49;100.00;103095.28;5062843;28;20369;-74
2022/02/12 05:19:43;;;;;;;20.88;5.18;;;;;;;0.51;100.00;103092.84;5065052;28;20028;-73
2022/02/12 05:22:09;;;;;;;20.83;5.97;;;;;;;0.53;100.00;103099.09;5077281;28;20023;-74
2022/02/12 05:24:35;;;;;;;23.85;5.70;;;;;;;0.56;100.00;103091.59;5080189;28;20031;-74
2022/02/12 05:27:00;;;;;;;17.05;4.93;;;;;;;0.58;100.00;103087.44;5081014;28;20491;-73
2022/02/12 05:29:25;;;;;;;20.08;5.63;;;;;;;0.57;100.00;103085.66;5079803;28;20036;-73
2022/02/12 05:31:51;;;;;;;16.98;5.88;;;;;;;0.53;100.00;103085.19;5087079;28;20409;-74
2022/02/12 05:34:17;;;;;;;28.33;6.25;;;;;;;0.55;100.00;103083.69;5076220;28;20036;-73
2022/02/12 05:36:43;;;;;;;23.67;6.60;;;;;;;0.54;100.00;103077.56;5055233;28;20036;-73
2022/02/12 05:39:09;;;;;;;16.10;5.68;;;;;;;0.52;100.00;103076.53;5086702;28;20016;-74
2022/02/12 05:41:36;;;;;;;18.65;6.07;;;;;;;0.48;100.00;103085.69;5087079;28;20098;-74
2022/02/12 05:44:02;;;;;;;19.02;6.07;;;;;;;0.48;100.00;103077.03;5058733;28;20123;-74
2022/02/12 05:46:28;;;;;;;18.38;6.07;;;;;;;0.48;100.00;103087.38;5079597;28;20189;-74
2022/02/12 05:48:53;;;;;;;19.38;5.95;;;;;;;0.48;100.00;103074.44;5058930;28;20020;-74
2022/02/12 05:51:20;;;;;;;22.85;6.13;;;;;;;0.48;100.00;103072.72;5055424;28;20028;-74
2022/02/12 05:53:46;;;;;;;15.57;6.82;;;;;;;0.51;100.00;103061.75;5080964;28;20099;-73
2022/02/12 05:56:12;;;;;;;14.73;5.50;;;;;;;0.50;100.00;103059.91;5087010;28;20166;-73
2022/02/12 05:58:37;;;;;;;25.23;5.82;;;;;;;0.49;100.00;103063.31;5060209;28;20563;-74
2022/02/12 06:01:02;;;;;;;22.05;7.07;;;;;;;0.45;100.00;103056.03;5080886;28;20032;-74
2022/02/12 06:03:28;;;;;;;26.05;7.05;;;;;;;0.43;100.00;103052.34;5076353;28;20073;-73
2022/02/12 06:05:53;;;;;;;20.42;7.45;;;;;;;0.46;100.00;103050.03;5080497;28;20468;-73
2022/02/12 06:08:18;;;;;;;22.58;7.20;;;;;;;0.46;100.00;103044.88;5088475;28;20088;-73
2022/02/12 06:10:45;;;;;;;18.40;6.47;;;;;;;0.44;100.00;103042.13;5059959;28;20028;-74
2022/02/12 06:13:10;;;;;;;17.45;7.10;;;;;;;0.43;100.00;103042.91;5080469;28;20024;-73
2022/02/12 06:15:36;;;;;;;20.38;7.75;;;;;;;0.43;100.00;103037.72;5066376;28;20039;-74
2022/02/12 06:18:05;;;;;;;22.58;8.18;;;;;;;0.44;100.00;103029.19;5082989;28;20048;-73
2022/02/12 06:20:31;;;;;;;17.95;6.50;;;;;;;0.45;100.00;103024.94;5078693;28;20064;-74
2022/02/12 06:22:56;;;;;;;20.63;6.63;;;;;;;0.41;100.00;103021.13;5078861;28;20480;-73
2022/02/12 06:25:21;;;;;;;20.85;7.22;;;;;;;0.43;100.00;103023.88;5074730;28;20024;-73
2022/02/12 06:27:47;;;;;;;21.58;6.43;;;;;;;0.42;100.00;103015.19;5063878;28;20024;-74
2022/02/12 06:30:13;;;;;;;22.88;7.60;;;;;;;0.41;100.00;103013.38;5062827;28;20036;-74
2022/02/12 06:32:38;;;;;;;15.27;7.07;;;;;;;0.39;100.00;103014.00;5055881;28;20089;-73
2022/02/12 06:35:04;;;;;;;21.08;6.97;;;;;;;0.37;100.00;103006.09;5076020;28;20389;-73
2022/02/12 06:37:30;;;;;;;20.58;8.07;;;;;;;0.33;100.00;103004.88;5086354;28;20148;-74
2022/02/12 06:39:57;;;;;;;26.95;8.05;;;;;;;0.33;100.00;103004.88;5076506;28;20518;-74
2022/02/12 06:42:23;;;;;;;19.15;8.07;;;;;;;0.35;100.00;103001.53;5067030;28;20028;-73
2022/02/12 06:44:48;;;;;;;21.55;9.23;;;;;;;0.33;100.00;102996.22;5059265;28;20031;-74
2022/02/12 06:47:14;;;;;;;19.55;8.05;;;;;;;0.31;100.00;103001.25;5062826;28;20029;-73
2022/02/12 06:49:39;;;;;;;16.02;7.32;;;;;;;0.32;100.00;102995.28;5073044;28;20044;-74
2022/02/12 06:52:05;;;;;;;22.17;8.43;;;;;;;0.31;100.00;103001.25;5060112;28;20504;-73
2022/02/12 06:54:31;;;;;;;25.48;8.93;;;;;;;0.31;100.00;103001.25;5095559;28;20039;-73
2022/02/12 06:56:57;;;;;;;23.98;8.05;;;;;;;0.33;100.00;102998.81;5095320;28;20089;-74
2022/02/12 06:59:22;;;;;;;24.55;8.55;;;;;;;0.30;100.00;102993.34;5095032;28;20080;-74
2022/02/12 07:01:48;;;;;;;25.23;10.10;;;;;;;0.30;100.00;102996.84;5101623;28;20098;-74
2022/02/12 07:04:13;;;;;;;28.33;9.85;;;;;;;0.32;100.00;102991.78;5099084;28;20106;-75
2022/02/12 07:06:40;;;;;;;22.38;9.50;;;;;;;0.30;100.00;102998.53;5093160;28;20024;-74
2022/02/12 07:09:05;;;;;;;22.63;9.80;;;;;;;0.27;100.00;102993.97;5098891;28;20890;-75
2022/02/12 07:11:31;;;;;;;34.70;10.68;;;;;;;0.29;100.00;102992.41;5105763;28;20157;-74
2022/02/12 07:13:56;;;;;;;21.55;8.75;;;;;;;0.31;100.00;102990.91;5100039;28;20114;-75
2022/02/12 07:16:22;;;;;;;30.38;8.88;;;;;;;0.38;100.00;102988.84;5106903;28;20110;-73
2022/02/12 07:18:48;;;;;;;32.70;9.48;;;;;;;0.40;100.00;102984.75;5080869;28;20032;-72
2022/02/12 07:21:14;;;;;;;30.70;9.85;;;;;;;0.43;100.00;103000.56;5107030;28;20483;-73
2022/02/12 07:23:40;;;;;;;27.20;10.55;;;;;;;0.42;100.00;102998.72;5078581;28;20028;-73
2022/02/12 07:26:06;;;;;;;24.33;9.60;;;;;;;0.40;100.00;103002.88;5097780;28;20024;-73
2022/02/12 07:28:32;;;;;;;21.52;8.43;;;;;;;0.42;100.00;102999.66;5077729;27;20396;-74
2022/02/12 07:30:58;;;;;;;32.10;9.90;;;;;;;0.44;100.00;102994.63;5107903;27;20053;-72
2022/02/12 07:33:26;;;;;;;32.50;9.88;;;;;;;0.48;100.00;102984.66;5085990;28;20173;-73
2022/02/12 07:35:52;;;;;;;23.40;9.90;;;;;;;0.52;100.00;102977.16;5101560;28;20023;-74
2022/02/12 07:38:17;;;;;;;25.48;9.43;;;;;;;0.53;100.00;102977.34;5107474;28;20026;-74
2022/02/12 07:40:43;;;;;;;29.75;9.77;;;;;;;0.55;100.00;102973.19;5099366;28;20476;-75
2022/02/12 07:43:08;;;;;;;24.30;9.95;;;;;;;0.56;100.00;102972.44;5099557;28;20430;-73
2022/02/12 07:45:33;;;;;;;28.65;10.60;;;;;;;0.57;100.00;102979.44;5082934;28;20030;-73
2022/02/12 07:47:59;;;;;;;26.45;11.20;;;;;;;0.61;100.00;102973.75;5081436;28;20135;-73
2022/02/12 07:50:24;;;;;;;27.02;11.05;;;;;;;0.62;100.00;102978.16;5098028;28;20099;-73
2022/02/12 07:52:51;;;;;;;29.20;10.60;;;;;;;0.65;100.00;102981.03;5099933;28;20043;-74
2022/02/12 07:55:17;;;;;;;23.52;9.48;;;;;;;0.67;100.00;102984.66;5093200;28;20054;-73
2022/02/12 07:57:43;;;;;;;24.88;10.48;;;;;;;0.70;100.00;102986.63;5098077;28;20114;-73
2022/02/12 08:00:09;;;;;;;29.50;10.88;;;;;;;0.73;100.00;102979.13;5096986;28;20090;-74
2022/02/12 08:02:34;;;;;;;25.05;10.02;;;;;;;0.79;100.00;102977.13;5109113;28;20024;-74
2022/02/12 08:05:00;;;;;;;23.92;9.57;;;;;;;0.81;100.00;102969.47;5078670;28;20035;-75
2022/02/12 08:07:28;;;;;;;30.10;11.40;;;;;;;0.85;100.00;102971.56;5108455;28;20028;-71
2022/02/12 08:09:57;;;;;;;26.60;10.13;;;;;;;0.89;100.00;102965.00;5105670;28;20098;-73
2022/02/12 08:12:24;;;;;;;26.67;11.40;;;;;;;0.94;100.00;102962.03;5099412;28;20115;-75
2022/02/12 08:14:51;;;;;;;26.00;10.35;;;;;;;1.02;100.00;102962.72;5113635;28;20456;-74
2022/02/12 08:17:17;;;;;;;24.38;10.30;;;;;;;1.07;100.00;102956.28;5097985;28;20085;-74
2022/02/12 08:19:45;;;;;;;20.33;9.02;;;;;;;1.13;100.00;102958.50;5098936;28;20107;-74
2022/02/12 08:22:11;;;;;;;26.83;9.50;;;;;;;1.21;100.00;102956.56;5084330;28;20038;-73
2022/02/12 08:24:36;;;;;;;25.05;9.27;;;;;;;1.26;100.00;102948.44;5081788;28;20114;-71
2022/02/12 08:27:02;;;;;;;23.80;9.10;;;;;;;1.29;100.00;102951.31;5086516;28;20027;-73
2022/02/12 08:29:30;;;;;;;26.52;9.05;;;;;;;1.34;100.00;102955.22;5103965;28;20110;-75
2022/02/12 08:31:57;;;;;;;22.73;8.98;;;;;;;1.38;100.00;102950.28;5103226;27;20016;-75
2022/02/12 08:34:27;;;;;;;21.85;8.75;;;;;;;1.45;100.00;102942.28;5079694;28;20034;-75
2022/02/12 08:36:54;;;;;;;19.17;8.68;;;;;;;1.52;100.00;102944.66;5101623;28;20043;-75
2022/02/12 08:39:19;;;;;;;20.88;9.15;;;;;;;1.55;100.00;102944.91;5096010;28;20028;-74
2022/02/12 08:41:46;;;;;;;23.77;8.50;;;;;;;1.62;100.00;102942.06;5089831;28;20028;-74
2022/02/12 08:44:12;;;;;;;20.13;8.20;;;;;;;1.69;100.00;102930.53;5077259;28;20044;-75
2022/02/12 08:46:38;;;;;;;31.30;8.88;;;;;;;1.74;100.00;102939.63;5094726;28;20031;-75
2022/02/12 08:49:04;;;;;;;20.88;8.45;;;;;;;1.80;100.00;102932.34;5077997;28;20115;-74
2022/02/12 08:51:29;;;;;;;26.15;8.80;;;;;;;1.89;100.00;102921.84;5105692;28;20040;-73
2022/02/12 08:53:55;;;;;;;28.10;9.15;;;;;;;1.94;100.00;102923.16;5075903;28;20045;-74
2022/02/12 08:56:22;;;;;;;18.65;7.97;;;;;;;2.02;100.00;102919.53;5087168;28;20036;-75
2022/02/12 08:58:48;;;;;;;22.55;8.15;;;;;;;2.14;100.00;102905.75;5087298;28;20043;-75
2022/02/12 09:01:13;;;;;;;27.67;8.88;;;;;;;2.23;100.00;102913.44;5084595;28;20070;-74
2022/02/12 09:03:39;;;;;;;29.38;9.23;;;;;;;2.32;99.36;102898.59;5082171;28;20028;-75
2022/02/12 09:06:04;;;;;;;18.10;7.80;;;;;;;2.44;98.79;102903.91;5077413;28;20051;-73
2022/02/12 09:08:30;;;;;;;18.10;8.18;;;;;;;2.57;98.10;102890.25;5086139;28;20056;-74
2022/02/12 09:10:56;;;;;;;22.40;8.07;;;;;;;2.69;97.39;102881.75;5064631;28;20031;-73
2022/02/12 09:13:21;;;;;;;18.25;7.25;;;;;;;2.82;97.00;102878.47;5090492;28;20039;-75
2022/02/12 09:15:46;;;;;;;22.45;8.38;;;;;;;2.92;96.59;102867.09;5059043;28;20027;-74
2022/02/12 09:18:13;;;;;;;18.08;6.78;;;;;;;3.10;95.79;102870.25;5078071;28;20020;-76
2022/02/12 09:20:38;;;;;;;17.83;8.43;;;;;;;3.37;95.43;102875.84;5079504;28;20107;-74
2022/02/12 09:23:04;;;;;;;18.00;6.78;;;;;;;3.93;92.33;102865.41;5062487;28;20050;-74
2022/02/12 09:25:30;;;;;;;18.80;6.80;;;;;;;4.46;89.28;102871.94;5094409;28;20373;-73
2022/02/12 09:27:55;;;;;;;18.40;6.30;;;;;;;4.96;85.81;102855.56;5094517;28;20059;-75
2022/02/12 09:30:21;;;;;;;16.00;6.65;;;;;;;5.26;84.32;102856.84;5076271;28;20114;-75
2022/02/12 09:32:47;;;;;;;18.90;7.10;;;;;;;5.60;83.54;102847.84;5067092;28;20024;-75
2022/02/12 09:35:13;;;;;;;13.32;6.18;;;;;;;5.74;79.22;102853.22;5094345;28;20055;-74
2022/02/12 09:37:38;;;;;;;18.73;6.75;;;;;;;5.87;79.71;102857.59;5085914;28;20028;-75
2022/02/12 09:40:04;;;;;;;14.95;5.70;;;;;;;5.90;77.80;102844.75;5082601;28;20056;-74
2022/02/12 09:42:31;;;;;;;13.65;5.47;;;;;;;6.08;76.44;102841.59;5067720;28;20510;-78
2022/02/12 09:44:57;;;;;;;16.77;6.50;;;;;;;6.11;74.97;102840.91;5089507;28;20533;-77
2022/02/12 09:47:39;;;;;;;13.18;6.05;;;;;;;5.91;75.29;102837.78;5084281;28;20095;-77
2022/02/12 09:50:05;;;;;;;21.05;6.60;;;;;;;6.02;75.42;102830.72;5090744;28;20494;-78
2022/02/12 09:52:33;;;;;;;15.90;5.10;;;;;;;6.05;76.49;102830.91;5058019;28;20051;-76
2022/02/12 09:54:59;;;;;;;14.52;6.10;;;;;;;6.01;75.62;102828.91;5065651;28;20144;-78
2022/02/12 09:57:26;;;;;;;14.68;6.00;;;;;;;5.92;75.12;102818.72;5085203;28;20024;-78
2022/02/12 10:00:04;;;;;;;18.45;5.72;;;;;;;5.96;75.36;102825.97;5091863;28;20057;-75
2022/02/12 10:02:29;;;;;;;14.18;6.47;;;;;;;5.79;74.93;102826.53;5077408;28;20028;-75
2022/02/12 10:05:15;;;;;;;16.73;5.82;;;;;;;5.88;75.53;102816.69;5077079;28;20024;-76
2022/02/12 10:07:40;;;;;;;12.73;5.55;;;;;;;5.85;75.95;102808.66;5074840;28;20032;-72
2022/02/12 10:10:14;;;;;;;14.50;4.82;;;;;;;5.86;74.12;102802.59;5087884;28;20023;-71
2022/02/12 10:12:40;;;;;;;18.48;5.65;;;;;;;5.83;75.19;102795.50;5067370;28;20141;-72
2022/02/12 10:15:29;;;;;;;12.45;5.25;;;;;;;5.96;75.41;102794.59;5076087;28;20138;-72
2022/02/12 10:17:59;;;;;;;18.52;5.55;;;;;;;6.15;75.93;102790.63;5101511;28;20461;-72
2022/02/12 10:20:32;;;;;;;14.85;5.15;;;;;;;6.27;74.55;102794.06;5093611;28;20024;-72
2022/02/12 10:23:19;;;;;;;11.80;5.00;;;;;;;6.43;74.28;102776.75;5083957;28;20028;-72
2022/02/12 10:25:46;;;;;;;16.88;4.93;;;;;;;6.53;72.12;102773.94;5086866;28;20032;-73
2022/02/12 10:28:14;;;;;;;14.57;5.20;;;;;;;6.98;72.13;102780.25;5085381;28;20096;-73
2022/02/12 10:30:42;;;;;;;16.17;4.90;;;;;;;7.02;71.77;102790.09;5057316;28;20427;-73
2022/02/12 10:33:08;;;;;;;25.83;6.22;;;;;;;6.98;72.03;102788.09;5073314;28;20035;-74
2022/02/12 10:35:35;;;;;;;14.48;4.80;;;;;;;7.39;71.83;102794.09;5074310;28;20047;-74
2022/02/12 10:38:04;;;;;;;17.02;4.95;;;;;;;7.80;71.68;102797.41;5056995;28;20044;-73
2022/02/12 10:40:31;;;;;;;17.20;4.75;;;;;;;7.85;69.55;102781.13;5084606;28;20085;-73
2022/02/12 10:42:57;;;;;;;11.30;4.43;;;;;;;7.86;69.08;102787.28;5055366;28;20715;-74
2022/02/12 10:45:25;;;;;;;18.45;5.45;;;;;;;8.17;69.11;102794.34;5072911;28;20068;-74
2022/02/12 10:47:51;;;;;;;11.70;4.50;;;;;;;8.42;67.90;102780.88;5079805;28;20029;-74
2022/02/12 10:50:18;;;;;;;15.00;4.80;;;;;;;8.69;67.17;102786.81;5088139;28;20024;-73
2022/02/12 10:52:45;;;;;;;11.50;4.25;;;;;;;8.91;64.73;102773.16;5082013;28;20040;-74
2022/02/12 10:55:46;;;;;;;10.50;4.15;;;;;;;9.07;62.33;102777.50;5095877;28;20400;-74
2022/02/12 10:58:13;;;;;;;17.30;4.68;;;;;;;8.21;62.83;102775.34;5092757;28;20111;-73
2022/02/12 11:00:40;;;;;;;12.20;3.88;;;;;;;7.98;64.38;102777.53;5097337;28;20077;-75
2022/02/12 11:03:12;;;;;;;11.30;4.40;;;;;;;8.14;64.42;102774.09;5093849;28;20102;-73
2022/02/12 11:05:42;;;;;;;13.70;4.43;;;;;;;8.02;64.30;102774.25;5095687;28;20368;-74
2022/02/12 11:08:09;;;;;;;11.13;4.15;;;;;;;8.23;64.91;102766.75;5105196;28;20082;-75
2022/02/12 11:10:36;;;;;;;13.55;4.32;;;;;;;8.53;63.41;102763.16;5101279;28;20068;-73
2022/02/12 11:13:04;;;;;;;17.10;3.90;;;;;;;8.70;62.46;102762.38;5083548;28;20039;-75
2022/02/12 11:15:31;;;;;;;12.50;4.05;;;;;;;8.27;63.80;102754.69;5093268;28;20038;-75
2022/02/12 11:18:02;;;;;;;14.32;4.13;;;;;;;8.78;63.80;102740.06;5097920;28;20041;-74
2022/02/12 11:20:29;;;;;;;11.77;4.47;;;;;;;8.99;61.05;102734.16;5076545;28;20377;-74